sensor_id;sensor_type;location;lat;lon;timestamp;temperature;humidity
2825;DHT22;1420;51.324;12.344;2024-02-04T00:01:11;8.80;99.90
2825;DHT22;1420;51.324;12.344;2024-02-04T00:03:38;8.80;99.90
2825;DHT22;1420;51.324;12.344;2024-02-04T00:06:05;8.90;99.90
2825;DHT22;1420;51.324;12.344;2024-02-04T00:08:32;8.90;99.90
2825;DHT22;1420;51.324;12.344;2024-02-04T00:11:00;8.80;99.90
2825;DHT22;1420;51.324;12.344;2024-02-04T00:13:28;8.80;99.90
2825;DHT22;1420;51.324;12.344;2024-02-04T00:15:56;8.80;99.90
2825;DHT22;1420;51.324;12.344;2024-02-04T00:18:24;8.80;99.90
2825;DHT22;1420;51.324;12.344;2024-02-04T00:20:52;8.80;99.90
2825;DHT22;1420;51.324;12.344;2024-02-04T00:23:20;8.80;99.90
2825;DHT22;1420;51.324;12.344;2024-02-04T00:25:48;8.70;99.90
2825;DHT22;1420;51.324;12.344;2024-02-04T00:28:16;8.70;99.90
2825;DHT22;1420;51.324;12.344;2024-02-04T00:30:44;8.60;99.90
2825;DHT22;1420;51.324;12.344;2024-02-04T00:33:12;8.60;99.90
2825;DHT22;1420;51.324;12.344;2024-02-04T00:35:40;8.50;99.90
2825;DHT22;1420;51.324;12.344;2024-02-04T00:38:08;8.50;99.90
2825;DHT22;1420;51.324;12.344;2024-02-04T00:40:36;8.50;99.90
2825;DHT22;1420;51.324;12.344;2024-02-04T00:43:04;8.40;99.90
2825;DHT22;1420;51.324;12.344;2024-02-04T00:45:31;8.40;99.90
2825;DHT22;1420;51.324;12.344;2024-02-04T00:47:58;8.50;99.90
2825;DHT22;1420;51.324;12.344;2024-02-04T00:50:26;8.40;99.90
2825;DHT22;1420;51.324;12.344;2024-02-04T00:52:54;8.50;99.90
2825;DHT22;1420;51.324;12.344;2024-02-04T00:55:22;8.50;99.90
2825;DHT22;1420;51.324;12.344;2024-02-04T00:57:50;8.50;99.90
2825;DHT22;1420;51.324;12.344;2024-02-04T01:00:18;8.50;99.90
2825;DHT22;1420;51.324;12.344;2024-02-04T01:02:45;8.50;99.90
2825;DHT22;1420;51.324;12.344;2024-02-04T01:05:13;8.50;99.90
2825;DHT22;1420;51.324;12.344;2024-02-04T01:07:40;8.60;99.90
2825;DHT22;1420;51.324;12.344;2024-02-04T01:10:08;8.50;99.90
2825;DHT22;1420;51.324;12.344;2024-02-04T01:12:36;8.50;99.90
2825;DHT22;1420;51.324;12.344;2024-02-04T01:15:03;8.50;99.90
2825;DHT22;1420;51.324;12.344;2024-02-04T01:17:31;8.60;99.90
2825;DHT22;1420;51.324;12.344;2024-02-04T01:19:59;8.60;99.90
2825;DHT22;1420;51.324;12.344;2024-02-04T01:22:27;8.50;99.90
2825;DHT22;1420;51.324;12.344;2024-02-04T01:24:54;8.50;99.90
2825;DHT22;1420;51.324;12.344;2024-02-04T01:27:21;8.60;99.90
2825;DHT22;1420;51.324;12.344;2024-02-04T01:29:49;8.50;99.90
2825;DHT22;1420;51.324;12.344;2024-02-04T01:32:17;8.50;99.90
2825;DHT22;1420;51.324;12.344;2024-02-04T01:34:45;8.60;99.90
2825;DHT22;1420;51.324;12.344;2024-02-04T01:37:13;8.60;99.90
2825;DHT22;1420;51.324;12.344;2024-02-04T01:39:41;8.60;99.90
2825;DHT22;1420;51.324;12.344;2024-02-04T01:42:09;8.50;99.90
2825;DHT22;1420;51.324;12.344;2024-02-04T01:44:36;8.60;99.90
2825;DHT22;1420;51.324;12.344;2024-02-04T01:47:03;8.60;99.90
2825;DHT22;1420;51.324;12.344;2024-02-04T01:49:30;8.60;99.90
2825;DHT22;1420;51.324;12.344;2024-02-04T01:51:58;8.60;99.90
2825;DHT22;1420;51.324;12.344;2024-02-04T01:54:26;8.60;99.90
2825;DHT22;1420;51.324;12.344;2024-02-04T01:56:54;8.60;99.90
2825;DHT22;1420;51.324;12.344;2024-02-04T01:59:22;8.60;99.90
2825;DHT22;1420;51.324;12.344;2024-02-04T02:01:50;8.60;99.90
2825;DHT22;1420;51.324;12.344;2024-02-04T02:04:17;8.50;99.90
2825;DHT22;1420;51.324;12.344;2024-02-04T02:06:44;8.60;99.90
2825;DHT22;1420;51.324;12.344;2024-02-04T02:09:12;8.50;99.90
2825;DHT22;1420;51.324;12.344;2024-02-04T02:11:42;8.50;99.90
2825;DHT22;1420;51.324;12.344;2024-02-04T02:14:09;8.50;99.90
2825;DHT22;1420;51.324;12.344;2024-02-04T02:16:34;8.50;99.90
2825;DHT22;1420;51.324;12.344;2024-02-04T02:19:06;8.50;99.90
2825;DHT22;1420;51.324;12.344;2024-02-04T02:21:44;8.40;99.90
2825;DHT22;1420;51.324;12.344;2024-02-04T02:24:10;8.40;99.90
2825;DHT22;1420;51.324;12.344;2024-02-04T02:26:37;8.40;99.90
2825;DHT22;1420;51.324;12.344;2024-02-04T02:29:05;8.30;99.90
2825;DHT22;1420;51.324;12.344;2024-02-04T02:31:32;8.40;99.90
2825;DHT22;1420;51.324;12.344;2024-02-04T02:34:00;8.40;99.90
2825;DHT22;1420;51.324;12.344;2024-02-04T02:36:27;8.30;99.90
2825;DHT22;1420;51.324;12.344;2024-02-04T02:39:13;8.30;99.90
2825;DHT22;1420;51.324;12.344;2024-02-04T02:41:37;8.30;99.90
2825;DHT22;1420;51.324;12.344;2024-02-04T02:44:04;8.30;99.90
2825;DHT22;1420;51.324;12.344;2024-02-04T02:46:31;8.20;99.90
2825;DHT22;1420;51.324;12.344;2024-02-04T02:48:59;8.20;99.90
2825;DHT22;1420;51.324;12.344;2024-02-04T02:51:26;8.10;99.90
2825;DHT22;1420;51.324;12.344;2024-02-04T02:53:53;8.10;99.90
2825;DHT22;1420;51.324;12.344;2024-02-04T02:56:20;8.10;99.90
2825;DHT22;1420;51.324;12.344;2024-02-04T02:58:47;8.00;99.90
2825;DHT22;1420;51.324;12.344;2024-02-04T03:01:15;8.00;99.90
2825;DHT22;1420;51.324;12.344;2024-02-04T03:03:42;8.00;99.90
2825;DHT22;1420;51.324;12.344;2024-02-04T03:06:09;8.00;99.90
2825;DHT22;1420;51.324;12.344;2024-02-04T03:08:36;8.10;99.90
2825;DHT22;1420;51.324;12.344;2024-02-04T03:11:03;8.10;99.90
2825;DHT22;1420;51.324;12.344;2024-02-04T03:13:31;8.20;99.90
2825;DHT22;1420;51.324;12.344;2024-02-04T03:15:59;8.10;99.90
2825;DHT22;1420;51.324;12.344;2024-02-04T03:18:27;8.10;99.90
2825;DHT22;1420;51.324;12.344;2024-02-04T03:20:54;8.10;99.90
2825;DHT22;1420;51.324;12.344;2024-02-04T03:23:21;8.10;99.90
2825;DHT22;1420;51.324;12.344;2024-02-04T03:25:48;8.10;99.90
2825;DHT22;1420;51.324;12.344;2024-02-04T03:28:15;8.10;99.90
2825;DHT22;1420;51.324;12.344;2024-02-04T03:30:43;8.20;99.90
2825;DHT22;1420;51.324;12.344;2024-02-04T03:33:11;8.20;99.90
2825;DHT22;1420;51.324;12.344;2024-02-04T03:35:39;8.20;99.90
2825;DHT22;1420;51.324;12.344;2024-02-04T03:38:06;8.20;99.90
2825;DHT22;1420;51.324;12.344;2024-02-04T03:40:33;8.20;99.90
2825;DHT22;1420;51.324;12.344;2024-02-04T03:43:00;8.20;99.90
2825;DHT22;1420;51.324;12.344;2024-02-04T03:45:27;8.20;99.90
2825;DHT22;1420;51.324;12.344;2024-02-04T03:47:55;8.20;99.90
2825;DHT22;1420;51.324;12.344;2024-02-04T03:50:22;8.20;99.90
2825;DHT22;1420;51.324;12.344;2024-02-04T03:52:49;8.20;99.90
2825;DHT22;1420;51.324;12.344;2024-02-04T03:55:16;8.30;99.90
2825;DHT22;1420;51.324;12.344;2024-02-04T03:57:43;8.30;99.90
2825;DHT22;1420;51.324;12.344;2024-02-04T04:00:11;8.30;99.90
2825;DHT22;1420;51.324;12.344;2024-02-04T04:02:39;8.40;99.90
2825;DHT22;1420;51.324;12.344;2024-02-04T04:05:10;8.40;99.90
2825;DHT22;1420;51.324;12.344;2024-02-04T04:07:38;8.30;99.90
2825;DHT22;1420;51.324;12.344;2024-02-04T04:10:06;8.40;99.90
2825;DHT22;1420;51.324;12.344;2024-02-04T04:12:33;8.40;99.90
2825;DHT22;1420;51.324;12.344;2024-02-04T04:15:00;8.50;99.90
2825;DHT22;1420;51.324;12.344;2024-02-04T04:17:28;8.50;99.90
2825;DHT22;1420;51.324;12.344;2024-02-04T04:19:56;8.50;99.90
2825;DHT22;1420;51.324;12.344;2024-02-04T04:22:24;8.50;99.90
2825;DHT22;1420;51.324;12.344;2024-02-04T04:24:51;8.50;99.90
2825;DHT22;1420;51.324;12.344;2024-02-04T04:27:18;8.50;99.90
2825;DHT22;1420;51.324;12.344;2024-02-04T04:29:46;8.50;99.90
2825;DHT22;1420;51.324;12.344;2024-02-04T04:32:14;8.50;99.90
2825;DHT22;1420;51.324;12.344;2024-02-04T04:34:42;8.40;99.90
2825;DHT22;1420;51.324;12.344;2024-02-04T04:37:10;8.50;99.90
2825;DHT22;1420;51.324;12.344;2024-02-04T04:39:38;8.50;99.90
2825;DHT22;1420;51.324;12.344;2024-02-04T04:42:05;8.40;99.90
2825;DHT22;1420;51.324;12.344;2024-02-04T04:44:32;8.40;99.90
2825;DHT22;1420;51.324;12.344;2024-02-04T04:47:00;8.40;99.90
2825;DHT22;1420;51.324;12.344;2024-02-04T04:49:28;8.40;99.90
2825;DHT22;1420;51.324;12.344;2024-02-04T04:51:55;8.40;99.90
2825;DHT22;1420;51.324;12.344;2024-02-04T04:54:23;8.40;99.90
2825;DHT22;1420;51.324;12.344;2024-02-04T04:56:50;8.40;99.90
2825;DHT22;1420;51.324;12.344;2024-02-04T04:59:17;8.50;99.90
2825;DHT22;1420;51.324;12.344;2024-02-04T05:01:45;8.50;99.90
2825;DHT22;1420;51.324;12.344;2024-02-04T05:04:12;8.40;99.90
2825;DHT22;1420;51.324;12.344;2024-02-04T05:06:39;8.40;99.90
2825;DHT22;1420;51.324;12.344;2024-02-04T05:09:06;8.40;99.90
2825;DHT22;1420;51.324;12.344;2024-02-04T05:11:33;8.30;99.90
2825;DHT22;1420;51.324;12.344;2024-02-04T05:14:00;8.30;99.90
2825;DHT22;1420;51.324;12.344;2024-02-04T05:16:28;8.40;99.90
2825;DHT22;1420;51.324;12.344;2024-02-04T05:18:55;8.40;99.90
2825;DHT22;1420;51.324;12.344;2024-02-04T05:21:23;8.30;99.90
2825;DHT22;1420;51.324;12.344;2024-02-04T05:23:50;8.30;99.90
2825;DHT22;1420;51.324;12.344;2024-02-04T05:26:17;8.30;99.90
2825;DHT22;1420;51.324;12.344;2024-02-04T05:28:45;8.30;99.90
2825;DHT22;1420;51.324;12.344;2024-02-04T05:31:12;8.20;99.90
2825;DHT22;1420;51.324;12.344;2024-02-04T05:33:40;8.30;99.90
2825;DHT22;1420;51.324;12.344;2024-02-04T05:36:08;8.30;99.90
2825;DHT22;1420;51.324;12.344;2024-02-04T05:38:35;8.20;99.90
2825;DHT22;1420;51.324;12.344;2024-02-04T05:41:02;8.30;99.90
2825;DHT22;1420;51.324;12.344;2024-02-04T05:43:29;8.30;99.90
2825;DHT22;1420;51.324;12.344;2024-02-04T05:45:56;8.30;99.90
2825;DHT22;1420;51.324;12.344;2024-02-04T05:48:24;8.30;99.90
2825;DHT22;1420;51.324;12.344;2024-02-04T05:50:51;8.30;99.90
2825;DHT22;1420;51.324;12.344;2024-02-04T05:53:18;8.40;99.90
2825;DHT22;1420;51.324;12.344;2024-02-04T05:55:46;8.40;99.90
2825;DHT22;1420;51.324;12.344;2024-02-04T05:58:13;8.40;99.90
2825;DHT22;1420;51.324;12.344;2024-02-04T06:00:41;8.40;99.90
2825;DHT22;1420;51.324;12.344;2024-02-04T06:03:09;8.40;99.90
2825;DHT22;1420;51.324;12.344;2024-02-04T06:05:37;8.50;99.90
2825;DHT22;1420;51.324;12.344;2024-02-04T06:08:05;8.40;99.90
2825;DHT22;1420;51.324;12.344;2024-02-04T06:10:33;8.50;99.90
2825;DHT22;1420;51.324;12.344;2024-02-04T06:13:00;8.50;99.90
2825;DHT22;1420;51.324;12.344;2024-02-04T06:15:27;8.50;99.90
2825;DHT22;1420;51.324;12.344;2024-02-04T06:17:55;8.50;99.90
2825;DHT22;1420;51.324;12.344;2024-02-04T06:20:23;8.50;99.90
2825;DHT22;1420;51.324;12.344;2024-02-04T06:22:51;8.50;99.90
2825;DHT22;1420;51.324;12.344;2024-02-04T06:25:19;8.50;99.90
2825;DHT22;1420;51.324;12.344;2024-02-04T06:27:47;8.60;99.90
2825;DHT22;1420;51.324;12.344;2024-02-04T06:30:15;8.60;99.90
2825;DHT22;1420;51.324;12.344;2024-02-04T06:32:43;8.70;99.90
2825;DHT22;1420;51.324;12.344;2024-02-04T06:35:11;8.70;99.90
2825;DHT22;1420;51.324;12.344;2024-02-04T06:37:40;8.80;99.90
2825;DHT22;1420;51.324;12.344;2024-02-04T06:40:08;8.80;99.90
2825;DHT22;1420;51.324;12.344;2024-02-04T06:42:35;8.80;99.90
2825;DHT22;1420;51.324;12.344;2024-02-04T06:45:03;8.80;99.90
2825;DHT22;1420;51.324;12.344;2024-02-04T06:47:30;8.80;99.90
2825;DHT22;1420;51.324;12.344;2024-02-04T06:49:57;8.90;99.90
2825;DHT22;1420;51.324;12.344;2024-02-04T06:52:24;8.80;99.90
2825;DHT22;1420;51.324;12.344;2024-02-04T06:54:52;8.80;99.90
2825;DHT22;1420;51.324;12.344;2024-02-04T06:57:19;8.80;99.90
2825;DHT22;1420;51.324;12.344;2024-02-04T06:59:47;8.90;99.90
2825;DHT22;1420;51.324;12.344;2024-02-04T07:02:14;8.90;99.90
2825;DHT22;1420;51.324;12.344;2024-02-04T07:04:41;8.80;99.90
2825;DHT22;1420;51.324;12.344;2024-02-04T07:07:08;8.80;99.90
2825;DHT22;1420;51.324;12.344;2024-02-04T07:09:35;8.90;99.90
2825;DHT22;1420;51.324;12.344;2024-02-04T07:12:03;8.80;99.90
2825;DHT22;1420;51.324;12.344;2024-02-04T07:14:30;8.80;99.90
2825;DHT22;1420;51.324;12.344;2024-02-04T07:16:57;8.80;99.90
2825;DHT22;1420;51.324;12.344;2024-02-04T07:19:25;8.80;99.90
2825;DHT22;1420;51.324;12.344;2024-02-04T07:21:52;8.90;99.90
2825;DHT22;1420;51.324;12.344;2024-02-04T07:24:19;8.90;99.90
2825;DHT22;1420;51.324;12.344;2024-02-04T07:26:47;8.90;99.90
2825;DHT22;1420;51.324;12.344;2024-02-04T07:29:15;8.90;99.90
2825;DHT22;1420;51.324;12.344;2024-02-04T07:31:43;9.00;99.90
2825;DHT22;1420;51.324;12.344;2024-02-04T07:34:11;9.00;99.90
2825;DHT22;1420;51.324;12.344;2024-02-04T07:36:39;9.00;99.90
2825;DHT22;1420;51.324;12.344;2024-02-04T07:39:07;9.00;99.90
2825;DHT22;1420;51.324;12.344;2024-02-04T07:41:35;9.00;99.90
2825;DHT22;1420;51.324;12.344;2024-02-04T07:44:03;9.30;99.90
2825;DHT22;1420;51.324;12.344;2024-02-04T07:46:30;9.30;99.90
2825;DHT22;1420;51.324;12.344;2024-02-04T07:48:58;9.70;99.90
2825;DHT22;1420;51.324;12.344;2024-02-04T07:51:25;9.60;99.90
2825;DHT22;1420;51.324;12.344;2024-02-04T07:53:53;9.90;99.90
2825;DHT22;1420;51.324;12.344;2024-02-04T07:56:20;9.80;99.90
2825;DHT22;1420;51.324;12.344;2024-02-04T07:58:47;9.90;99.90
2825;DHT22;1420;51.324;12.344;2024-02-04T08:01:14;9.90;99.90
2825;DHT22;1420;51.324;12.344;2024-02-04T08:03:43;9.80;99.90
2825;DHT22;1420;51.324;12.344;2024-02-04T08:06:09;9.70;99.90
2825;DHT22;1420;51.324;12.344;2024-02-04T08:08:36;9.50;99.90
2825;DHT22;1420;51.324;12.344;2024-02-04T08:11:03;9.40;99.90
2825;DHT22;1420;51.324;12.344;2024-02-04T08:13:31;9.30;99.90
2825;DHT22;1420;51.324;12.344;2024-02-04T08:15:58;9.30;99.90
2825;DHT22;1420;51.324;12.344;2024-02-04T08:18:26;9.30;99.90
2825;DHT22;1420;51.324;12.344;2024-02-04T08:20:54;9.30;99.90
2825;DHT22;1420;51.324;12.344;2024-02-04T08:23:22;9.30;99.90
2825;DHT22;1420;51.324;12.344;2024-02-04T08:25:50;9.20;99.90
2825;DHT22;1420;51.324;12.344;2024-02-04T08:28:17;9.30;99.90
2825;DHT22;1420;51.324;12.344;2024-02-04T08:30:45;9.40;99.90
2825;DHT22;1420;51.324;12.344;2024-02-04T08:33:12;9.30;99.90
2825;DHT22;1420;51.324;12.344;2024-02-04T08:35:40;9.50;99.90
2825;DHT22;1420;51.324;12.344;2024-02-04T08:38:07;9.50;99.90
2825;DHT22;1420;51.324;12.344;2024-02-04T08:40:34;9.50;99.90
2825;DHT22;1420;51.324;12.344;2024-02-04T08:43:02;9.50;99.90
2825;DHT22;1420;51.324;12.344;2024-02-04T08:45:29;9.60;99.90
2825;DHT22;1420;51.324;12.344;2024-02-04T08:47:56;9.60;99.90
2825;DHT22;1420;51.324;12.344;2024-02-04T08:50:23;9.60;99.90
2825;DHT22;1420;51.324;12.344;2024-02-04T08:52:51;9.60;99.90
2825;DHT22;1420;51.324;12.344;2024-02-04T08:55:18;9.60;99.90
2825;DHT22;1420;51.324;12.344;2024-02-04T08:57:45;9.60;99.90
2825;DHT22;1420;51.324;12.344;2024-02-04T09:00:14;9.60;99.90
2825;DHT22;1420;51.324;12.344;2024-02-04T09:02:41;9.50;99.90
2825;DHT22;1420;51.324;12.344;2024-02-04T09:05:08;9.50;99.90
2825;DHT22;1420;51.324;12.344;2024-02-04T09:07:35;9.50;99.90
2825;DHT22;1420;51.324;12.344;2024-02-04T09:10:04;9.60;99.90
2825;DHT22;1420;51.324;12.344;2024-02-04T09:12:31;9.50;99.90
2825;DHT22;1420;51.324;12.344;2024-02-04T09:14:58;9.50;99.90
2825;DHT22;1420;51.324;12.344;2024-02-04T09:17:25;9.50;99.90
2825;DHT22;1420;51.324;12.344;2024-02-04T09:19:53;9.50;99.90
2825;DHT22;1420;51.324;12.344;2024-02-04T09:22:21;9.50;99.90
2825;DHT22;1420;51.324;12.344;2024-02-04T09:24:48;9.40;99.90
2825;DHT22;1420;51.324;12.344;2024-02-04T09:27:15;9.30;99.90
2825;DHT22;1420;51.324;12.344;2024-02-04T09:29:42;9.30;99.90
2825;DHT22;1420;51.324;12.344;2024-02-04T09:32:10;9.20;99.90
2825;DHT22;1420;51.324;12.344;2024-02-04T09:34:38;9.30;99.90
2825;DHT22;1420;51.324;12.344;2024-02-04T09:37:07;9.20;99.90
2825;DHT22;1420;51.324;12.344;2024-02-04T09:39:34;9.20;99.90
2825;DHT22;1420;51.324;12.344;2024-02-04T09:42:02;9.30;99.90
2825;DHT22;1420;51.324;12.344;2024-02-04T09:44:30;9.40;99.90
2825;DHT22;1420;51.324;12.344;2024-02-04T09:46:58;9.40;99.90
2825;DHT22;1420;51.324;12.344;2024-02-04T09:49:27;9.40;99.90
2825;DHT22;1420;51.324;12.344;2024-02-04T09:51:56;9.30;99.90
2825;DHT22;1420;51.324;12.344;2024-02-04T09:54:22;9.20;99.90
2825;DHT22;1420;51.324;12.344;2024-02-04T09:56:50;9.30;99.90
2825;DHT22;1420;51.324;12.344;2024-02-04T09:59:18;9.30;99.90
2825;DHT22;1420;51.324;12.344;2024-02-04T10:01:46;9.20;99.90
2825;DHT22;1420;51.324;12.344;2024-02-04T10:04:14;9.20;99.90
2825;DHT22;1420;51.324;12.344;2024-02-04T10:06:42;9.20;99.90
2825;DHT22;1420;51.324;12.344;2024-02-04T10:09:10;9.10;99.90
2825;DHT22;1420;51.324;12.344;2024-02-04T10:11:38;9.10;99.90
2825;DHT22;1420;51.324;12.344;2024-02-04T10:14:06;9.10;99.90
2825;DHT22;1420;51.324;12.344;2024-02-04T10:16:35;9.10;99.90
2825;DHT22;1420;51.324;12.344;2024-02-04T10:19:02;9.10;99.90
2825;DHT22;1420;51.324;12.344;2024-02-04T10:21:29;9.20;99.90
2825;DHT22;1420;51.324;12.344;2024-02-04T10:23:57;9.20;99.90
2825;DHT22;1420;51.324;12.344;2024-02-04T10:26:28;9.20;99.90
2825;DHT22;1420;51.324;12.344;2024-02-04T10:28:54;9.20;99.90
2825;DHT22;1420;51.324;12.344;2024-02-04T10:31:22;9.40;99.90
2825;DHT22;1420;51.324;12.344;2024-02-04T10:33:49;9.40;99.90
2825;DHT22;1420;51.324;12.344;2024-02-04T10:36:16;9.50;99.90
2825;DHT22;1420;51.324;12.344;2024-02-04T10:38:44;9.60;99.90
2825;DHT22;1420;51.324;12.344;2024-02-04T10:41:13;9.60;99.90
2825;DHT22;1420;51.324;12.344;2024-02-04T10:43:39;9.50;99.90
2825;DHT22;1420;51.324;12.344;2024-02-04T10:46:12;9.50;99.90
2825;DHT22;1420;51.324;12.344;2024-02-04T10:48:37;9.60;99.90
2825;DHT22;1420;51.324;12.344;2024-02-04T10:51:05;9.60;99.90
2825;DHT22;1420;51.324;12.344;2024-02-04T10:53:33;9.70;99.90
2825;DHT22;1420;51.324;12.344;2024-02-04T10:56:00;9.70;99.90
2825;DHT22;1420;51.324;12.344;2024-02-04T10:58:28;9.70;99.90
2825;DHT22;1420;51.324;12.344;2024-02-04T11:00:56;9.70;99.90
2825;DHT22;1420;51.324;12.344;2024-02-04T11:03:24;9.70;99.90
2825;DHT22;1420;51.324;12.344;2024-02-04T11:05:52;9.70;99.90
2825;DHT22;1420;51.324;12.344;2024-02-04T11:08:20;9.70;99.90
2825;DHT22;1420;51.324;12.344;2024-02-04T11:10:47;9.60;99.90
2825;DHT22;1420;51.324;12.344;2024-02-04T11:13:16;9.60;99.90
2825;DHT22;1420;51.324;12.344;2024-02-04T11:15:44;9.60;99.90
2825;DHT22;1420;51.324;12.344;2024-02-04T11:18:30;9.70;99.90
2825;DHT22;1420;51.324;12.344;2024-02-04T11:21:01;9.60;99.90
2825;DHT22;1420;51.324;12.344;2024-02-04T11:23:48;9.70;99.90
2825;DHT22;1420;51.324;12.344;2024-02-04T11:26:11;9.60;99.90
2825;DHT22;1420;51.324;12.344;2024-02-04T11:28:38;9.60;99.90
2825;DHT22;1420;51.324;12.344;2024-02-04T11:31:12;9.70;99.90
2825;DHT22;1420;51.324;12.344;2024-02-04T11:33:32;9.70;99.90
2825;DHT22;1420;51.324;12.344;2024-02-04T11:36:03;9.70;99.90
2825;DHT22;1420;51.324;12.344;2024-02-04T11:38:35;9.70;99.90
2825;DHT22;1420;51.324;12.344;2024-02-04T11:40:59;9.70;99.90
2825;DHT22;1420;51.324;12.344;2024-02-04T11:43:26;9.80;99.90
2825;DHT22;1420;51.324;12.344;2024-02-04T11:45:53;9.80;99.90
2825;DHT22;1420;51.324;12.344;2024-02-04T11:48:28;9.90;99.90
2825;DHT22;1420;51.324;12.344;2024-02-04T11:50:53;9.90;99.90
2825;DHT22;1420;51.324;12.344;2024-02-04T11:53:21;9.90;99.90
2825;DHT22;1420;51.324;12.344;2024-02-04T11:55:51;9.90;99.90
2825;DHT22;1420;51.324;12.344;2024-02-04T11:58:17;9.90;99.90
2825;DHT22;1420;51.324;12.344;2024-02-04T12:00:45;9.90;99.90
2825;DHT22;1420;51.324;12.344;2024-02-04T12:03:14;9.90;99.90
2825;DHT22;1420;51.324;12.344;2024-02-04T12:05:41;9.90;99.90
2825;DHT22;1420;51.324;12.344;2024-02-04T12:08:09;9.90;99.90
2825;DHT22;1420;51.324;12.344;2024-02-04T12:10:37;9.70;99.90
2825;DHT22;1420;51.324;12.344;2024-02-04T12:13:06;9.70;99.90
2825;DHT22;1420;51.324;12.344;2024-02-04T12:15:35;9.70;99.90
2825;DHT22;1420;51.324;12.344;2024-02-04T12:18:09;9.70;99.90
2825;DHT22;1420;51.324;12.344;2024-02-04T12:20:36;9.70;99.90
2825;DHT22;1420;51.324;12.344;2024-02-04T12:23:04;9.70;99.90
2825;DHT22;1420;51.324;12.344;2024-02-04T12:25:34;9.70;99.90
2825;DHT22;1420;51.324;12.344;2024-02-04T12:28:02;9.80;99.90
2825;DHT22;1420;51.324;12.344;2024-02-04T12:30:29;9.80;99.90
2825;DHT22;1420;51.324;12.344;2024-02-04T12:32:57;9.70;99.90
2825;DHT22;1420;51.324;12.344;2024-02-04T12:35:24;9.80;99.90
2825;DHT22;1420;51.324;12.344;2024-02-04T12:37:52;9.80;99.90
2825;DHT22;1420;51.324;12.344;2024-02-04T12:40:22;9.80;99.90
2825;DHT22;1420;51.324;12.344;2024-02-04T12:42:56;9.80;99.90
2825;DHT22;1420;51.324;12.344;2024-02-04T12:45:23;9.90;99.90
2825;DHT22;1420;51.324;12.344;2024-02-04T12:47:51;10.00;99.90
2825;DHT22;1420;51.324;12.344;2024-02-04T12:50:19;10.10;99.90
2825;DHT22;1420;51.324;12.344;2024-02-04T12:52:46;10.10;99.90
2825;DHT22;1420;51.324;12.344;2024-02-04T12:55:19;10.00;99.90
2825;DHT22;1420;51.324;12.344;2024-02-04T12:57:46;10.10;99.90
2825;DHT22;1420;51.324;12.344;2024-02-04T13:00:17;10.00;99.90
2825;DHT22;1420;51.324;12.344;2024-02-04T13:02:41;10.00;99.90
2825;DHT22;1420;51.324;12.344;2024-02-04T13:05:08;10.00;99.90
2825;DHT22;1420;51.324;12.344;2024-02-04T13:07:38;9.90;99.90
2825;DHT22;1420;51.324;12.344;2024-02-04T13:10:05;10.00;99.90
2825;DHT22;1420;51.324;12.344;2024-02-04T13:12:32;10.00;99.90
2825;DHT22;1420;51.324;12.344;2024-02-04T13:15:00;10.00;99.90
2825;DHT22;1420;51.324;12.344;2024-02-04T13:17:27;10.00;99.90
2825;DHT22;1420;51.324;12.344;2024-02-04T13:19:54;9.90;99.90
2825;DHT22;1420;51.324;12.344;2024-02-04T13:22:22;9.90;99.90
2825;DHT22;1420;51.324;12.344;2024-02-04T13:24:49;9.90;99.90
2825;DHT22;1420;51.324;12.344;2024-02-04T13:27:16;9.90;99.90
2825;DHT22;1420;51.324;12.344;2024-02-04T13:29:43;9.90;99.90
2825;DHT22;1420;51.324;12.344;2024-02-04T13:32:10;9.90;99.90
2825;DHT22;1420;51.324;12.344;2024-02-04T13:34:38;9.80;99.90
2825;DHT22;1420;51.324;12.344;2024-02-04T13:37:05;9.80;99.90
2825;DHT22;1420;51.324;12.344;2024-02-04T13:39:33;9.80;99.90
2825;DHT22;1420;51.324;12.344;2024-02-04T13:42:01;9.70;99.90
2825;DHT22;1420;51.324;12.344;2024-02-04T13:44:29;9.70;99.90
2825;DHT22;1420;51.324;12.344;2024-02-04T13:46:56;9.70;99.90
2825;DHT22;1420;51.324;12.344;2024-02-04T13:49:23;9.70;99.90
2825;DHT22;1420;51.324;12.344;2024-02-04T13:51:51;9.60;99.90
2825;DHT22;1420;51.324;12.344;2024-02-04T13:54:19;9.60;99.90
2825;DHT22;1420;51.324;12.344;2024-02-04T13:56:46;9.60;99.90
2825;DHT22;1420;51.324;12.344;2024-02-04T13:59:14;9.60;99.90
2825;DHT22;1420;51.324;12.344;2024-02-04T14:01:41;9.60;99.90
2825;DHT22;1420;51.324;12.344;2024-02-04T14:04:08;9.50;99.90
2825;DHT22;1420;51.324;12.344;2024-02-04T14:06:35;9.50;99.90
2825;DHT22;1420;51.324;12.344;2024-02-04T14:09:03;9.50;99.90
2825;DHT22;1420;51.324;12.344;2024-02-04T14:11:30;9.50;99.90
2825;DHT22;1420;51.324;12.344;2024-02-04T14:13:57;9.50;99.90
2825;DHT22;1420;51.324;12.344;2024-02-04T14:16:24;9.50;99.90
2825;DHT22;1420;51.324;12.344;2024-02-04T14:18:52;9.40;99.90
2825;DHT22;1420;51.324;12.344;2024-02-04T14:21:19;9.40;99.90
2825;DHT22;1420;51.324;12.344;2024-02-04T14:23:47;9.30;99.90
2825;DHT22;1420;51.324;12.344;2024-02-04T14:26:17;9.40;99.90
2825;DHT22;1420;51.324;12.344;2024-02-04T14:28:44;9.40;99.90
2825;DHT22;1420;51.324;12.344;2024-02-04T14:31:12;9.40;99.90
2825;DHT22;1420;51.324;12.344;2024-02-04T14:33:41;9.40;99.90
2825;DHT22;1420;51.324;12.344;2024-02-04T14:36:08;9.40;99.90
2825;DHT22;1420;51.324;12.344;2024-02-04T14:38:36;9.40;99.90
2825;DHT22;1420;51.324;12.344;2024-02-04T14:41:04;9.40;99.90
2825;DHT22;1420;51.324;12.344;2024-02-04T14:43:31;9.40;99.90
2825;DHT22;1420;51.324;12.344;2024-02-04T14:45:59;9.30;99.90
2825;DHT22;1420;51.324;12.344;2024-02-04T14:48:27;9.30;99.90
2825;DHT22;1420;51.324;12.344;2024-02-04T14:50:55;9.30;99.90
2825;DHT22;1420;51.324;12.344;2024-02-04T14:53:22;9.30;99.90
2825;DHT22;1420;51.324;12.344;2024-02-04T14:55:49;9.30;99.90
2825;DHT22;1420;51.324;12.344;2024-02-04T14:58:17;9.30;99.90
2825;DHT22;1420;51.324;12.344;2024-02-04T15:00:44;9.20;99.90
2825;DHT22;1420;51.324;12.344;2024-02-04T15:03:12;9.30;99.90
2825;DHT22;1420;51.324;12.344;2024-02-04T15:05:41;9.20;99.90
2825;DHT22;1420;51.324;12.344;2024-02-04T15:08:07;9.10;99.90
2825;DHT22;1420;51.324;12.344;2024-02-04T15:10:35;9.20;99.90
2825;DHT22;1420;51.324;12.344;2024-02-04T15:13:02;9.20;99.90
2825;DHT22;1420;51.324;12.344;2024-02-04T15:15:30;9.10;99.90
2825;DHT22;1420;51.324;12.344;2024-02-04T15:17:58;9.10;99.90
2825;DHT22;1420;51.324;12.344;2024-02-04T15:20:25;9.20;99.90
2825;DHT22;1420;51.324;12.344;2024-02-04T15:22:52;9.20;99.90
2825;DHT22;1420;51.324;12.344;2024-02-04T15:25:20;9.10;99.90
2825;DHT22;1420;51.324;12.344;2024-02-04T15:27:47;9.20;99.90
2825;DHT22;1420;51.324;12.344;2024-02-04T15:30:14;9.10;99.90
2825;DHT22;1420;51.324;12.344;2024-02-04T15:32:42;9.00;99.90
2825;DHT22;1420;51.324;12.344;2024-02-04T15:35:10;9.10;99.90
2825;DHT22;1420;51.324;12.344;2024-02-04T15:37:37;9.10;99.90
2825;DHT22;1420;51.324;12.344;2024-02-04T15:40:05;9.10;99.90
2825;DHT22;1420;51.324;12.344;2024-02-04T15:42:32;9.00;99.90
2825;DHT22;1420;51.324;12.344;2024-02-04T15:45:00;9.00;99.90
2825;DHT22;1420;51.324;12.344;2024-02-04T15:47:29;9.00;99.90
2825;DHT22;1420;51.324;12.344;2024-02-04T15:49:55;9.00;99.90
2825;DHT22;1420;51.324;12.344;2024-02-04T15:52:23;9.00;99.90
2825;DHT22;1420;51.324;12.344;2024-02-04T15:54:50;9.10;99.90
2825;DHT22;1420;51.324;12.344;2024-02-04T15:57:18;9.00;99.90
2825;DHT22;1420;51.324;12.344;2024-02-04T15:59:50;9.00;99.90
2825;DHT22;1420;51.324;12.344;2024-02-04T16:02:17;8.90;99.90
2825;DHT22;1420;51.324;12.344;2024-02-04T16:04:45;8.90;99.90